Terminal Aerodrome Forecast
Issued by NWS

Home | Current Version | Previous Version | Text Only | Print | Product List | Glossary On
Versions: 1 2 3 4 5 6 7 8 9 10 11 12 13
278
FTUS45 KREV 040527
TAFMMH
TAF
KMMH 040527Z 0406/0506 VRB04KT P6SM FEW180
     FM041900 25011G19KT P6SM FEW070 SCT180
     FM050200 28012G22KT P6SM SCT070 BKN180=

USA.gov is the U.S. government's official web portal to all federal, state and local government web resources and services.